createdAt,value
2022-07-30T00:00:52.940Z,101005.09
2022-07-30T00:03:20.462Z,101014.16
2022-07-30T00:05:48.025Z,101001.88
2022-07-30T00:08:15.460Z,100999.19
2022-07-30T00:10:42.918Z,100992.31
2022-07-30T00:13:14.236Z,100998.38
2022-07-30T00:15:42.026Z,100996.00
2022-07-30T00:18:09.551Z,101006.25
2022-07-30T00:20:40.594Z,100999.84
2022-07-30T00:23:11.100Z,100994.84
2022-07-30T00:25:38.555Z,101003.91
2022-07-30T00:28:06.098Z,101002.03
2022-07-30T00:30:34.894Z,101000.06
2022-07-30T00:33:02.382Z,100998.38
2022-07-30T00:35:29.962Z,101003.06
2022-07-30T00:37:57.445Z,101003.41
2022-07-30T00:40:24.929Z,100997.88
2022-07-30T00:42:52.432Z,100997.03
2022-07-30T00:45:19.896Z,101003.41
2022-07-30T00:47:48.628Z,101003.56
2022-07-30T00:50:16.329Z,100990.31
2022-07-30T00:52:44.192Z,100999.19
2022-07-30T00:55:12.517Z,100992.00
2022-07-30T00:57:41.443Z,101000.88
2022-07-30T01:00:10.646Z,100997.53
2022-07-30T01:02:38.204Z,100997.38
2022-07-30T01:05:07.918Z,100992.00
2022-07-30T01:07:35.417Z,100991.13
2022-07-30T01:10:03.374Z,100988.63
2022-07-30T01:12:30.845Z,100983.44
2022-07-30T01:14:58.767Z,100984.09
2022-07-30T01:17:26.214Z,100983.28
2022-07-30T01:19:56.047Z,100990.47
2022-07-30T01:22:31.002Z,100990.63
2022-07-30T01:25:02.357Z,100988.97
2022-07-30T01:27:32.233Z,100980.91
2022-07-30T01:29:59.900Z,100984.59
2022-07-30T01:32:27.402Z,100992.81
2022-07-30T01:34:55.606Z,100984.75
2022-07-30T01:37:23.052Z,100983.75
2022-07-30T01:39:50.569Z,100976.69
2022-07-30T01:42:18.386Z,100980.41
2022-07-30T01:44:47.097Z,100978.72
2022-07-30T01:47:15.095Z,100980.41
2022-07-30T01:49:45.162Z,100974.50
2022-07-30T01:52:12.630Z,100972.00
2022-07-30T01:54:40.250Z,100968.81
2022-07-30T01:57:07.678Z,100973.38
2022-07-30T01:59:35.602Z,100972.50
2022-07-30T02:02:04.420Z,100970.19
2022-07-30T02:04:33.448Z,100969.47
2022-07-30T02:07:04.235Z,100974.19
2022-07-30T02:09:34.739Z,100976.72
2022-07-30T02:12:24.784Z,100980.22
2022-07-30T02:14:55.875Z,100975.00
2022-07-30T02:17:30.242Z,100974.03
2022-07-30T02:20:04.756Z,100974.19
2022-07-30T02:22:38.185Z,100975.00
2022-07-30T02:25:06.370Z,100974.19
2022-07-30T02:27:34.826Z,100979.56
2022-07-30T02:30:06.404Z,100970.66
2022-07-30T02:32:36.445Z,100973.19
2022-07-30T02:35:06.967Z,100974.19
2022-07-30T02:37:43.227Z,100964.47
2022-07-30T02:40:13.048Z,100963.44
2022-07-30T02:42:40.524Z,100965.47
2022-07-30T02:45:08.462Z,100968.16
2022-07-30T02:47:37.537Z,100960.09
2022-07-30T02:50:06.514Z,100958.41
2022-07-30T02:52:33.977Z,100961.78
2022-07-30T02:55:01.449Z,100957.56
2022-07-30T02:57:29.641Z,100957.41
2022-07-30T02:59:57.556Z,100964.47
2022-07-30T03:02:29.218Z,100959.94
2022-07-30T03:04:58.719Z,100953.91
2022-07-30T03:07:26.185Z,100953.72
2022-07-30T03:09:53.663Z,100952.88
2022-07-30T03:12:21.142Z,100961.78
2022-07-30T03:14:48.605Z,100968.81
2022-07-30T03:17:17.123Z,100958.06
2022-07-30T03:19:44.581Z,100966.97
2022-07-30T03:22:13.334Z,100958.91
2022-07-30T03:24:40.808Z,100967.97
2022-07-30T03:27:11.099Z,100969.66
2022-07-30T03:29:38.555Z,100973.34
2022-07-30T03:32:06.912Z,100974.19
2022-07-30T03:34:35.082Z,100975.22
2022-07-30T03:37:03.171Z,100976.22
2022-07-30T03:39:33.476Z,100983.28
2022-07-30T03:42:00.989Z,100975.38
2022-07-30T03:44:29.047Z,100982.06
2022-07-30T03:46:57.302Z,100971.50
2022-07-30T03:49:25.583Z,100977.69
2022-07-30T03:51:53.421Z,100980.38
2022-07-30T03:54:20.916Z,100977.69
2022-07-30T03:57:20.170Z,100977.38
2022-07-30T03:59:48.711Z,100980.22
2022-07-30T04:02:17.777Z,100982.25
2022-07-30T04:05:00.196Z,100983.28
2022-07-30T04:07:27.672Z,100994.84
2022-07-30T04:09:55.184Z,100991.13
2022-07-30T04:12:33.208Z,100998.19
2022-07-30T04:15:00.783Z,101005.25
2022-07-30T04:17:33.032Z,101016.16
2022-07-30T04:20:07.404Z,101018.19
2022-07-30T04:22:35.885Z,101014.78
2022-07-30T04:25:03.461Z,101010.94
2022-07-30T04:27:30.900Z,101019.00
2022-07-30T04:29:59.807Z,101017.97
2022-07-30T04:32:27.558Z,101020.88
2022-07-30T04:35:09.802Z,101020.00
2022-07-30T04:38:00.215Z,101027.06
2022-07-30T04:40:27.853Z,101020.88
2022-07-30T04:42:55.382Z,101024.22
2022-07-30T04:45:24.157Z,101026.22
2022-07-30T04:47:55.285Z,101019.16
2022-07-30T04:50:36.978Z,101019.84
2022-07-30T04:53:07.199Z,101020.00
2022-07-30T04:55:38.440Z,101017.31
2022-07-30T04:58:06.082Z,101020.00
2022-07-30T05:00:40.991Z,101025.22
2022-07-30T05:03:13.335Z,101031.59
2022-07-30T05:05:43.749Z,101021.69
2022-07-30T05:08:11.306Z,101022.53
2022-07-30T05:10:38.804Z,101017.16
2022-07-30T05:13:11.850Z,101022.53
2022-07-30T05:15:44.570Z,101018.84
2022-07-30T05:18:13.014Z,101014.63
2022-07-30T05:20:43.445Z,101019.84
2022-07-30T05:23:20.711Z,101019.84
2022-07-30T05:26:05.163Z,101017.16
2022-07-30T05:28:40.107Z,101019.16
2022-07-30T05:31:12.822Z,101011.13
2022-07-30T05:33:42.782Z,101020.16
2022-07-30T05:36:15.619Z,101014.63
2022-07-30T05:38:43.120Z,101012.09
2022-07-30T05:41:33.514Z,101018.34
2022-07-30T05:44:11.552Z,101017.31
2022-07-30T05:46:40.456Z,101025.38
2022-07-30T05:49:08.262Z,101028.72
2022-07-30T05:51:35.850Z,101033.44
2022-07-30T05:54:03.320Z,101028.91
2022-07-30T05:56:41.997Z,101022.53
2022-07-30T05:59:14.251Z,101026.22
2022-07-30T06:02:03.035Z,101027.22
2022-07-30T06:04:46.351Z,101037.13
2022-07-30T06:07:13.990Z,101034.47
2022-07-30T06:09:41.652Z,101040.97
2022-07-30T06:12:09.788Z,101036.44
2022-07-30T06:14:37.385Z,101035.59
2022-07-30T06:17:08.019Z,101032.75
2022-07-30T06:19:53.851Z,101038.97
2022-07-30T06:22:26.085Z,101034.78
2022-07-30T06:24:54.571Z,101039.81
2022-07-30T06:27:31.311Z,101047.88
2022-07-30T06:30:00.476Z,101043.34
2022-07-30T06:32:29.231Z,101049.38
2022-07-30T06:35:04.006Z,101046.19
2022-07-30T06:38:05.738Z,101053.22
2022-07-30T06:40:22.034Z,101050.03
2022-07-30T06:43:03.088Z,101050.75
2022-07-30T06:45:49.827Z,101052.41
2022-07-30T06:48:23.169Z,101052.41
2022-07-30T06:50:50.658Z,101059.63
2022-07-30T06:53:18.203Z,101061.28
2022-07-30T06:56:04.357Z,101059.47
2022-07-30T06:58:41.745Z,101059.47
2022-07-30T07:01:27.852Z,101064.84
2022-07-30T07:03:58.215Z,101072.56
2022-07-30T07:06:25.718Z,101065.34
2022-07-30T07:08:53.394Z,101068.19
2022-07-30T07:11:27.643Z,101068.19
2022-07-30T07:13:59.307Z,101068.84
2022-07-30T07:16:34.682Z,101069.88
2022-07-30T07:20:01.470Z,101064.81
2022-07-30T07:22:06.156Z,101058.97
2022-07-30T07:24:33.740Z,101065.31
2022-07-30T07:27:15.495Z,101062.47
2022-07-30T07:30:00.996Z,101060.78
2022-07-30T07:32:30.742Z,101059.13
2022-07-30T07:34:59.657Z,101065.16
2022-07-30T07:37:27.800Z,101065.16
2022-07-30T07:39:56.041Z,101058.09
2022-07-30T07:42:23.752Z,101060.63
2022-07-30T07:44:51.899Z,101059.78
2022-07-30T07:47:19.689Z,101063.16
2022-07-30T07:50:03.284Z,101066.66
2022-07-30T07:52:31.081Z,101065.50
2022-07-30T07:54:58.556Z,101071.88
2022-07-30T07:57:26.744Z,101070.53
2022-07-30T07:59:55.426Z,101068.00
2022-07-30T08:02:27.538Z,101075.56
2022-07-30T08:05:08.076Z,101078.25
2022-07-30T08:07:52.518Z,101077.94
2022-07-30T08:10:55.195Z,101077.06
2022-07-30T08:13:52.468Z,101074.38
2022-07-30T08:16:39.277Z,101068.84
2022-07-30T08:19:36.143Z,101071.53
2022-07-30T08:22:18.835Z,101065.16
2022-07-30T08:24:46.340Z,101072.22
2022-07-30T08:27:13.773Z,101064.84
2022-07-30T08:29:41.722Z,101072.56
2022-07-30T08:32:09.264Z,101068.84
2022-07-30T08:34:38.954Z,101068.53
2022-07-30T08:37:06.552Z,101070.88
2022-07-30T08:39:35.652Z,101067.69
2022-07-30T08:42:03.417Z,101069.34
2022-07-30T08:44:31.567Z,101072.38
2022-07-30T08:47:00.054Z,101071.53
2022-07-30T08:49:40.943Z,101071.53
2022-07-30T08:52:09.032Z,101070.03
2022-07-30T08:54:51.147Z,101068.19
2022-07-30T08:57:18.641Z,101071.53
2022-07-30T08:59:59.821Z,101074.56
2022-07-30T09:02:31.216Z,101070.19
2022-07-30T09:05:02.756Z,101072.88
2022-07-30T09:07:30.310Z,101070.38
2022-07-30T09:09:59.153Z,101071.88
2022-07-30T09:12:37.776Z,101068.53
2022-07-30T09:15:08.627Z,101069.19
2022-07-30T09:17:54.647Z,101070.19
2022-07-30T09:20:24.220Z,101063.81
2022-07-30T09:22:52.597Z,101076.81
2022-07-30T09:25:40.469Z,101070.91
2022-07-30T09:28:30.377Z,101068.53
2022-07-30T09:31:15.997Z,101070.03
2022-07-30T09:34:02.509Z,101064.03
2022-07-30T09:37:18.133Z,101066.41
2022-07-30T09:40:12.365Z,101061.84
2022-07-30T09:43:05.267Z,101063.38
2022-07-30T09:45:34.937Z,101062.53
2022-07-30T09:48:03.101Z,101059.50
2022-07-30T09:50:31.032Z,101059.84
2022-07-30T09:53:07.297Z,101050.63
2022-07-30T09:55:41.892Z,101068.06
2022-07-30T09:58:12.792Z,101059.19
2022-07-30T10:00:44.222Z,101055.63
2022-07-30T10:03:34.111Z,101060.84
2022-07-30T10:06:34.436Z,101055.28
2022-07-30T10:09:13.953Z,101059.16
2022-07-30T10:11:46.833Z,101060.16
2022-07-30T10:14:16.292Z,101063.19
2022-07-30T10:16:44.107Z,101064.88
2022-07-30T10:19:18.068Z,101068.06
2022-07-30T10:22:07.819Z,101061.84
2022-07-30T10:24:57.865Z,101060.50
2022-07-30T10:27:45.798Z,101071.59
2022-07-30T10:30:28.115Z,101074.78
2022-07-30T10:32:56.862Z,101066.72
2022-07-30T10:35:34.561Z,101071.25
2022-07-30T10:38:05.683Z,101068.75
2022-07-30T10:40:34.740Z,101067.56
2022-07-30T10:43:23.270Z,101068.38
2022-07-30T10:46:05.100Z,101074.28
2022-07-30T10:48:36.686Z,101068.06
2022-07-30T10:51:04.199Z,101064.88
2022-07-30T10:53:38.931Z,101069.75
2022-07-30T10:56:14.191Z,101061.81
2022-07-30T10:59:02.944Z,101064.88
2022-07-30T11:02:07.741Z,101060.50
2022-07-30T11:04:36.772Z,101065.53
2022-07-30T11:07:29.429Z,101062.34
2022-07-30T11:10:05.115Z,101057.84
2022-07-30T11:12:53.100Z,101063.22
2022-07-30T11:15:21.505Z,101065.88
2022-07-30T11:18:03.045Z,101062.69
2022-07-30T11:20:33.185Z,101065.22
2022-07-30T11:23:10.167Z,101064.72
2022-07-30T11:25:51.503Z,101063.53
2022-07-30T11:28:44.423Z,101069.25
2022-07-30T11:31:56.443Z,101067.22
2022-07-30T11:34:28.596Z,101064.72
2022-07-30T11:37:18.441Z,101071.94
2022-07-30T11:40:12.100Z,101072.59
2022-07-30T11:42:40.987Z,101071.78
2022-07-30T11:45:26.716Z,101074.59
2022-07-30T11:47:54.915Z,101069.22
2022-07-30T11:50:23.997Z,101067.56
2022-07-30T11:52:52.958Z,101065.06
2022-07-30T11:55:24.682Z,101060.19
2022-07-30T11:57:52.411Z,101058.00
2022-07-30T12:00:20.180Z,101054.81
2022-07-30T12:05:27.528Z,101056.47
2022-07-30T12:07:59.172Z,101059.50
2022-07-30T12:10:26.900Z,101057.16
2022-07-30T12:12:54.949Z,101069.94
2022-07-30T12:15:29.779Z,101067.41
2022-07-30T12:18:24.306Z,101063.19
2022-07-30T12:20:45.285Z,101062.69
2022-07-30T12:23:14.294Z,101062.69
2022-07-30T12:25:47.787Z,101064.88
2022-07-30T12:28:22.328Z,101060.00
2022-07-30T12:30:49.835Z,101062.34
2022-07-30T12:33:17.368Z,101065.38
2022-07-30T12:35:46.244Z,101066.88
2022-07-30T12:38:15.565Z,101067.72
2022-07-30T12:40:57.557Z,101071.44
2022-07-30T12:43:44.221Z,101063.53
2022-07-30T12:46:14.855Z,101054.97
2022-07-30T12:48:53.278Z,101060.16
2022-07-30T12:51:22.077Z,101058.50
2022-07-30T12:53:50.857Z,101062.53
2022-07-30T12:56:20.782Z,101062.19
2022-07-30T12:58:48.612Z,101056.66
2022-07-30T13:01:16.570Z,101062.34
2022-07-30T13:03:45.418Z,101062.84
2022-07-30T13:06:14.419Z,101058.84
2022-07-30T13:08:49.447Z,101056.50
2022-07-30T13:11:18.705Z,101060.84
2022-07-30T13:13:46.261Z,101055.47
2022-07-30T13:16:13.914Z,101064.56
2022-07-30T13:18:41.745Z,101060.00
2022-07-30T13:21:10.047Z,101061.69
2022-07-30T13:23:37.662Z,101049.41
2022-07-30T13:26:05.163Z,101051.28
2022-07-30T13:28:34.705Z,101064.19
2022-07-30T13:31:02.398Z,101058.34
2022-07-30T13:33:29.821Z,101062.19
2022-07-30T13:35:57.382Z,101062.84
2022-07-30T13:38:24.824Z,101059.50
2022-07-30T13:40:52.324Z,101058.34
2022-07-30T13:43:20.090Z,101057.16
2022-07-30T13:45:48.979Z,101052.97
2022-07-30T13:48:16.475Z,101056.50
2022-07-30T13:50:44.208Z,101060.50
2022-07-30T13:53:11.965Z,101055.13
2022-07-30T13:55:39.636Z,101049.91
2022-07-30T13:58:07.566Z,101046.75
2022-07-30T14:00:36.631Z,101051.28
2022-07-30T14:03:06.339Z,101030.63
2022-07-30T14:05:35.917Z,101044.06
2022-07-30T14:08:10.233Z,101043.34
2022-07-30T14:10:37.915Z,101038.66
2022-07-30T14:13:05.495Z,101041.19
2022-07-30T14:15:32.943Z,101037.31
2022-07-30T14:18:00.574Z,101037.66
2022-07-30T14:20:29.369Z,101027.59
2022-07-30T14:22:56.862Z,101040.88
2022-07-30T14:25:24.343Z,101029.41
2022-07-30T14:27:52.222Z,101026.88
2022-07-30T14:30:20.202Z,101027.72
2022-07-30T14:32:48.129Z,101026.22
2022-07-30T14:35:15.600Z,101021.69
2022-07-30T14:37:44.412Z,101023.38
2022-07-30T14:40:12.541Z,101021.84
2022-07-30T14:42:40.735Z,101020.69
2022-07-30T14:45:09.172Z,101029.25
2022-07-30T14:47:36.644Z,101025.22
2022-07-30T14:50:04.306Z,101029.91
2022-07-30T14:52:34.831Z,101030.75
2022-07-30T14:55:04.129Z,101030.94
2022-07-30T14:57:34.199Z,101029.91
2022-07-30T15:00:01.701Z,101030.41
2022-07-30T15:02:29.152Z,101032.09
2022-07-30T15:04:56.776Z,101033.75
2022-07-30T15:07:24.238Z,101030.75
2022-07-30T15:09:52.215Z,101024.53
2022-07-30T15:12:23.329Z,101041.53
2022-07-30T15:14:54.487Z,101035.13
2022-07-30T15:17:23.014Z,101037.31
2022-07-30T15:19:51.440Z,101030.59
2022-07-30T15:22:19.178Z,101036.13
2022-07-30T15:24:46.698Z,101027.56
2022-07-30T15:27:14.164Z,101031.09
2022-07-30T15:29:42.905Z,101029.41
2022-07-30T15:32:10.450Z,101032.44
2022-07-30T15:34:37.912Z,101026.88
2022-07-30T15:37:05.674Z,101023.38
2022-07-30T15:39:33.482Z,101023.38
2022-07-30T15:42:01.835Z,101016.66
2022-07-30T15:44:29.607Z,101014.66
2022-07-30T15:46:58.452Z,101016.13
2022-07-30T15:49:26.046Z,101014.47
2022-07-30T15:51:53.588Z,101015.16
2022-07-30T15:54:23.756Z,101015.13
2022-07-30T15:56:51.397Z,101012.44
2022-07-30T15:59:19.115Z,101021.66
2022-07-30T16:01:47.446Z,101020.78
2022-07-30T16:04:19.653Z,101019.97
2022-07-30T16:06:47.557Z,101026.00
2022-07-30T16:09:15.270Z,101003.69
2022-07-30T16:11:43.019Z,101013.22
2022-07-30T16:14:10.507Z,101008.38
2022-07-30T16:16:38.135Z,101007.19
2022-07-30T16:19:05.589Z,101012.22
2022-07-30T16:21:34.352Z,101013.94
2022-07-30T16:24:01.802Z,101009.88
2022-07-30T16:26:29.318Z,101014.75
2022-07-30T16:28:56.803Z,101007.72
2022-07-30T16:31:24.264Z,101020.28
2022-07-30T16:33:51.723Z,101022.00
2022-07-30T16:36:19.163Z,101012.41
2022-07-30T16:38:47.875Z,101016.13
2022-07-30T16:41:15.311Z,101015.16
2022-07-30T16:43:42.754Z,101014.44
2022-07-30T16:46:10.865Z,101017.13
2022-07-30T16:48:38.321Z,101015.75
2022-07-30T16:51:06.604Z,101022.84
2022-07-30T16:53:36.164Z,101022.97
2022-07-30T16:56:05.238Z,101017.78
2022-07-30T16:58:32.681Z,101028.88
2022-07-30T17:01:00.150Z,101025.53
2022-07-30T17:03:27.628Z,101028.03
2022-07-30T17:05:55.115Z,101031.38
2022-07-30T17:08:25.085Z,101034.25
2022-07-30T17:10:52.923Z,101037.63
2022-07-30T17:13:22.086Z,101029.06
2022-07-30T17:15:49.562Z,101040.16
2022-07-30T17:18:17.064Z,101040.31
2022-07-30T17:20:44.530Z,101034.63
2022-07-30T17:23:11.969Z,101036.75
2022-07-30T17:25:39.519Z,101044.16
2022-07-30T17:28:07.081Z,101048.72
2022-07-30T17:30:35.833Z,101041.16
2022-07-30T17:33:06.183Z,101045.03
2022-07-30T17:35:34.090Z,101048.38
2022-07-30T17:38:02.015Z,101048.38
2022-07-30T17:40:31.419Z,101047.00
2022-07-30T17:43:03.341Z,101054.75
2022-07-30T17:45:31.431Z,101055.56
2022-07-30T17:48:01.512Z,101056.78
2022-07-30T17:50:29.289Z,101053.06
2022-07-30T17:52:56.770Z,101057.44
2022-07-30T17:55:33.103Z,101058.44
2022-07-30T17:58:00.595Z,101061.28
2022-07-30T18:00:28.062Z,101056.78
2022-07-30T18:02:55.632Z,101057.78
2022-07-30T18:05:24.359Z,101061.97
2022-07-30T18:07:51.956Z,101058.97
2022-07-30T18:10:19.577Z,101052.56
2022-07-30T18:12:49.701Z,101060.31
2022-07-30T18:15:17.633Z,101057.78
2022-07-30T18:17:45.118Z,101058.63
2022-07-30T18:20:12.928Z,101055.47
2022-07-30T18:22:41.835Z,101058.97
2022-07-30T18:25:18.626Z,101066.22
2022-07-30T18:27:46.955Z,101064.34
2022-07-30T18:30:14.648Z,101059.81
2022-07-30T18:32:42.173Z,101060.84
2022-07-30T18:35:14.763Z,101062.50
2022-07-30T18:37:44.483Z,101070.22
2022-07-30T18:40:13.138Z,101076.28
2022-07-30T18:42:40.580Z,101072.09
2022-07-30T18:45:08.910Z,101076.63
2022-07-30T18:47:36.350Z,101078.28
2022-07-30T18:50:03.861Z,101089.03
2022-07-30T18:52:31.467Z,101089.72
2022-07-30T18:55:00.267Z,101091.22
2022-07-30T18:57:27.721Z,101084.50
2022-07-30T18:59:55.171Z,101091.41
2022-07-30T19:02:25.454Z,101095.41
2022-07-30T19:04:53.013Z,101096.78
2022-07-30T19:07:20.538Z,101102.16
2022-07-30T19:09:48.151Z,101101.97
2022-07-30T19:12:17.327Z,101107.19
2022-07-30T19:14:44.861Z,101106.34
2022-07-30T19:17:13.979Z,101110.88
2022-07-30T19:19:42.933Z,101116.25
2022-07-30T19:22:10.627Z,101119.94
2022-07-30T19:24:38.123Z,101122.13
2022-07-30T19:27:05.619Z,101123.00
2022-07-30T19:29:34.387Z,101119.78
2022-07-30T19:32:02.210Z,101129.69
2022-07-30T19:34:31.374Z,101127.00
2022-07-30T19:36:58.902Z,101119.97
2022-07-30T19:39:27.375Z,101121.81
2022-07-30T19:41:55.551Z,101129.03
2022-07-30T19:44:23.059Z,101136.78
2022-07-30T19:46:53.072Z,101135.06
2022-07-30T19:49:21.661Z,101136.78
2022-07-30T19:52:17.569Z,101135.06
2022-07-30T19:54:36.937Z,101135.06
2022-07-30T19:57:04.729Z,101138.59
2022-07-30T19:59:45.638Z,101140.28
2022-07-30T20:02:22.431Z,101131.41
2022-07-30T20:04:50.117Z,101133.22
2022-07-30T20:07:17.624Z,101134.09
2022-07-30T20:09:45.198Z,101131.06
2022-07-30T20:12:16.148Z,101136.06
2022-07-30T20:14:44.645Z,101143.66
2022-07-30T20:17:12.102Z,101137.09
2022-07-30T20:22:28.942Z,101136.41
2022-07-30T20:24:57.131Z,101143.97
2022-07-30T20:27:36.109Z,101140.78
2022-07-30T20:30:05.498Z,101139.09
2022-07-30T20:32:33.162Z,101126.34
2022-07-30T20:35:01.913Z,101133.56
2022-07-30T20:37:29.437Z,101136.78
2022-07-30T20:39:56.873Z,101135.09
2022-07-30T20:42:24.964Z,101137.78
2022-07-30T20:44:53.328Z,101134.22
2022-07-30T20:47:37.562Z,101134.41
2022-07-30T20:50:10.010Z,101136.25
2022-07-30T20:52:39.411Z,101130.03
2022-07-30T20:55:07.833Z,101129.03
2022-07-30T20:57:57.141Z,101123.31
2022-07-30T21:00:23.395Z,101126.00
2022-07-30T21:02:52.189Z,101114.09
2022-07-30T21:05:20.919Z,101120.63
2022-07-30T21:07:48.456Z,101113.56
2022-07-30T21:10:21.582Z,101116.13
2022-07-30T21:12:50.895Z,101120.31
2022-07-30T21:15:24.067Z,101114.75
2022-07-30T21:17:51.805Z,101115.41
2022-07-30T21:20:26.574Z,101119.13
2022-07-30T21:22:55.654Z,101115.09
2022-07-30T21:25:23.467Z,101110.91
2022-07-30T21:28:00.290Z,101112.72
2022-07-30T21:30:30.546Z,101117.78
2022-07-30T21:32:58.056Z,101115.75
2022-07-30T21:35:31.751Z,101117.28
2022-07-30T21:37:59.780Z,101112.06
2022-07-30T21:40:27.723Z,101118.66
2022-07-30T21:42:56.324Z,101116.13
2022-07-30T21:45:26.980Z,101120.97
2022-07-30T21:48:06.892Z,101119.28
2022-07-30T21:50:37.906Z,101121.81
2022-07-30T21:53:05.413Z,101123.31
2022-07-30T21:55:33.423Z,101122.50
2022-07-30T21:58:03.400Z,101120.63
2022-07-30T22:00:44.512Z,101118.28
2022-07-30T22:04:00.612Z,101118.97
2022-07-30T22:06:01.172Z,101123.16
2022-07-30T22:08:29.198Z,101115.41
2022-07-30T22:11:00.081Z,101111.91
2022-07-30T22:13:29.914Z,101116.63
2022-07-30T22:15:57.398Z,101111.25
2022-07-30T22:18:25.992Z,101121.34
2022-07-30T22:20:53.868Z,101114.25
2022-07-30T22:23:22.632Z,101119.94
2022-07-30T22:25:50.645Z,101111.03
2022-07-30T22:28:28.664Z,101113.06
2022-07-30T22:30:56.261Z,101115.94
2022-07-30T22:33:23.700Z,101113.25
2022-07-30T22:35:55.747Z,101112.38
2022-07-30T22:38:24.741Z,101113.25
2022-07-30T22:40:52.170Z,101112.22
2022-07-30T22:43:19.676Z,101112.38
2022-07-30T22:45:49.111Z,101115.06
2022-07-30T22:48:17.424Z,101110.72
2022-07-30T22:50:48.689Z,101104.84
2022-07-30T22:54:10.746Z,101108.34
2022-07-30T22:56:10.156Z,101113.91
2022-07-30T22:58:56.183Z,101107.69
2022-07-30T23:01:23.673Z,101109.56
2022-07-30T23:03:51.121Z,101106.00
2022-07-30T23:06:20.506Z,101102.16
2022-07-30T23:08:48.220Z,101100.97
2022-07-30T23:11:17.205Z,101101.81
2022-07-30T23:12:17.782Z,101136.78
2022-07-30T23:13:44.679Z,101095.91
2022-07-30T23:16:12.127Z,101093.91
2022-07-30T23:18:39.618Z,101097.09
2022-07-30T23:21:07.049Z,101089.88
2022-07-30T23:23:35.591Z,101095.75
2022-07-30T23:26:03.197Z,101098.28
2022-07-30T23:28:32.007Z,101090.38
2022-07-30T23:30:59.985Z,101096.28
2022-07-30T23:33:27.425Z,101086.38
2022-07-30T23:35:54.853Z,101084.97
2022-07-30T23:38:22.289Z,101085.81
2022-07-30T23:40:49.871Z,101078.31
2022-07-30T23:43:17.304Z,101087.53
2022-07-30T23:45:46.033Z,101093.75
2022-07-30T23:48:13.472Z,101085.81
2022-07-30T23:50:40.978Z,101087.00
2022-07-30T23:53:08.455Z,101089.03
2022-07-30T23:55:36.026Z,101088.38
2022-07-30T23:58:03.564Z,101084.81
